sensor_id;sensor_type;location;lat;lon;timestamp;temperature;humidity
7461;DHT22;6757;52.258;12.840;2023-05-21T00:01:13;14.90;99.90
7461;DHT22;6757;52.258;12.840;2023-05-21T00:03:40;14.90;99.90
7461;DHT22;6757;52.258;12.840;2023-05-21T00:06:11;14.90;99.90
7461;DHT22;6757;52.258;12.840;2023-05-21T00:08:40;14.80;99.90
7461;DHT22;6757;52.258;12.840;2023-05-21T00:11:07;14.80;99.90
7461;DHT22;6757;52.258;12.840;2023-05-21T00:13:34;14.80;99.90
7461;DHT22;6757;52.258;12.840;2023-05-21T00:16:01;15.00;99.90
7461;DHT22;6757;52.258;12.840;2023-05-21T00:18:28;14.70;99.90
7461;DHT22;6757;52.258;12.840;2023-05-21T00:20:56;15.40;99.90
7461;DHT22;6757;52.258;12.840;2023-05-21T00:23:25;14.70;99.90
7461;DHT22;6757;52.258;12.840;2023-05-21T00:25:52;14.60;99.90
7461;DHT22;6757;52.258;12.840;2023-05-21T00:28:19;14.60;99.90
7461;DHT22;6757;52.258;12.840;2023-05-21T00:30:46;14.60;99.90
7461;DHT22;6757;52.258;12.840;2023-05-21T00:33:13;14.60;99.90
7461;DHT22;6757;52.258;12.840;2023-05-21T00:35:40;14.60;99.90
7461;DHT22;6757;52.258;12.840;2023-05-21T00:38:07;14.50;99.90
7461;DHT22;6757;52.258;12.840;2023-05-21T00:40:35;14.50;99.90
7461;DHT22;6757;52.258;12.840;2023-05-21T00:43:05;14.50;99.90
7461;DHT22;6757;52.258;12.840;2023-05-21T00:45:34;14.40;99.90
7461;DHT22;6757;52.258;12.840;2023-05-21T00:48:01;14.40;99.90
7461;DHT22;6757;52.258;12.840;2023-05-21T00:50:29;14.40;99.90
7461;DHT22;6757;52.258;12.840;2023-05-21T00:52:56;14.40;99.90
7461;DHT22;6757;52.258;12.840;2023-05-21T00:55:24;14.30;99.90
7461;DHT22;6757;52.258;12.840;2023-05-21T00:57:53;14.30;99.90
7461;DHT22;6757;52.258;12.840;2023-05-21T01:00:20;14.30;99.90
7461;DHT22;6757;52.258;12.840;2023-05-21T01:02:49;14.20;99.90
7461;DHT22;6757;52.258;12.840;2023-05-21T01:05:16;14.20;99.90
7461;DHT22;6757;52.258;12.840;2023-05-21T01:07:43;14.20;99.90
7461;DHT22;6757;52.258;12.840;2023-05-21T01:10:11;14.20;99.90
7461;DHT22;6757;52.258;12.840;2023-05-21T01:12:39;14.30;99.90
7461;DHT22;6757;52.258;12.840;2023-05-21T01:15:11;14.10;99.90
7461;DHT22;6757;52.258;12.840;2023-05-21T01:17:38;14.10;99.90
7461;DHT22;6757;52.258;12.840;2023-05-21T01:20:07;14.00;99.90
7461;DHT22;6757;52.258;12.840;2023-05-21T01:22:36;14.00;99.90
7461;DHT22;6757;52.258;12.840;2023-05-21T01:25:06;14.00;99.90
7461;DHT22;6757;52.258;12.840;2023-05-21T01:27:33;13.90;99.90
7461;DHT22;6757;52.258;12.840;2023-05-21T01:30:00;13.90;99.90
7461;DHT22;6757;52.258;12.840;2023-05-21T01:32:33;13.90;99.90
7461;DHT22;6757;52.258;12.840;2023-05-21T01:35:10;13.80;99.90
7461;DHT22;6757;52.258;12.840;2023-05-21T01:37:43;13.80;99.90
7461;DHT22;6757;52.258;12.840;2023-05-21T01:40:26;13.70;99.90
7461;DHT22;6757;52.258;12.840;2023-05-21T01:42:56;13.70;99.90
7461;DHT22;6757;52.258;12.840;2023-05-21T01:45:24;13.60;99.90
7461;DHT22;6757;52.258;12.840;2023-05-21T01:47:54;13.60;99.90
7461;DHT22;6757;52.258;12.840;2023-05-21T01:50:22;13.50;99.90
7461;DHT22;6757;52.258;12.840;2023-05-21T01:52:51;13.50;99.90
7461;DHT22;6757;52.258;12.840;2023-05-21T01:55:19;13.50;99.90
7461;DHT22;6757;52.258;12.840;2023-05-21T01:57:50;13.40;99.90
7461;DHT22;6757;52.258;12.840;2023-05-21T02:00:18;13.40;99.90
7461;DHT22;6757;52.258;12.840;2023-05-21T02:02:45;13.30;99.90
7461;DHT22;6757;52.258;12.840;2023-05-21T02:05:12;13.20;99.90
7461;DHT22;6757;52.258;12.840;2023-05-21T02:07:39;13.20;99.90
7461;DHT22;6757;52.258;12.840;2023-05-21T02:10:08;13.20;99.90
7461;DHT22;6757;52.258;12.840;2023-05-21T02:12:37;13.10;99.90
7461;DHT22;6757;52.258;12.840;2023-05-21T02:15:05;13.10;99.90
7461;DHT22;6757;52.258;12.840;2023-05-21T02:17:33;13.00;99.90
7461;DHT22;6757;52.258;12.840;2023-05-21T02:20:00;13.00;99.90
7461;DHT22;6757;52.258;12.840;2023-05-21T02:22:35;13.00;99.90
7461;DHT22;6757;52.258;12.840;2023-05-21T02:25:03;12.90;99.90
7461;DHT22;6757;52.258;12.840;2023-05-21T02:27:31;12.90;99.90
7461;DHT22;6757;52.258;12.840;2023-05-21T02:30:01;12.90;99.90
7461;DHT22;6757;52.258;12.840;2023-05-21T02:32:28;12.80;99.90
7461;DHT22;6757;52.258;12.840;2023-05-21T02:34:57;12.80;99.90
7461;DHT22;6757;52.258;12.840;2023-05-21T02:37:24;12.80;99.90
7461;DHT22;6757;52.258;12.840;2023-05-21T02:39:52;12.70;99.90
7461;DHT22;6757;52.258;12.840;2023-05-21T02:42:19;12.70;99.90
7461;DHT22;6757;52.258;12.840;2023-05-21T02:44:46;12.60;99.90
7461;DHT22;6757;52.258;12.840;2023-05-21T02:47:15;12.60;99.90
7461;DHT22;6757;52.258;12.840;2023-05-21T02:49:42;12.60;99.90
7461;DHT22;6757;52.258;12.840;2023-05-21T02:52:09;12.60;99.90
7461;DHT22;6757;52.258;12.840;2023-05-21T02:54:35;12.60;99.90
7461;DHT22;6757;52.258;12.840;2023-05-21T02:57:03;12.60;99.90
7461;DHT22;6757;52.258;12.840;2023-05-21T02:59:30;12.50;99.90
7461;DHT22;6757;52.258;12.840;2023-05-21T03:01:57;12.50;99.90
7461;DHT22;6757;52.258;12.840;2023-05-21T03:04:25;12.50;99.90
7461;DHT22;6757;52.258;12.840;2023-05-21T03:06:53;12.50;99.90
7461;DHT22;6757;52.258;12.840;2023-05-21T03:09:20;12.50;99.90
7461;DHT22;6757;52.258;12.840;2023-05-21T03:11:47;12.50;99.90
7461;DHT22;6757;52.258;12.840;2023-05-21T03:14:14;12.50;99.90
7461;DHT22;6757;52.258;12.840;2023-05-21T03:16:41;12.40;99.90
7461;DHT22;6757;52.258;12.840;2023-05-21T03:19:09;12.80;99.90
7461;DHT22;6757;52.258;12.840;2023-05-21T03:21:38;12.40;99.90
7461;DHT22;6757;52.258;12.840;2023-05-21T03:24:06;12.40;99.90
7461;DHT22;6757;52.258;12.840;2023-05-21T03:26:34;12.50;99.90
7461;DHT22;6757;52.258;12.840;2023-05-21T03:29:01;12.50;99.90
7461;DHT22;6757;52.258;12.840;2023-05-21T03:31:28;12.50;99.90
7461;DHT22;6757;52.258;12.840;2023-05-21T03:33:54;12.50;99.90
7461;DHT22;6757;52.258;12.840;2023-05-21T03:36:21;12.50;99.90
7461;DHT22;6757;52.258;12.840;2023-05-21T03:38:50;12.50;99.90
7461;DHT22;6757;52.258;12.840;2023-05-21T03:41:17;12.50;99.90
7461;DHT22;6757;52.258;12.840;2023-05-21T03:43:43;12.50;99.90
7461;DHT22;6757;52.258;12.840;2023-05-21T03:46:10;12.60;99.90
7461;DHT22;6757;52.258;12.840;2023-05-21T03:48:37;12.70;99.90
7461;DHT22;6757;52.258;12.840;2023-05-21T03:51:04;12.60;99.90
7461;DHT22;6757;52.258;12.840;2023-05-21T03:53:32;12.60;99.90
7461;DHT22;6757;52.258;12.840;2023-05-21T03:56:01;12.70;99.90
7461;DHT22;6757;52.258;12.840;2023-05-21T03:58:29;12.70;99.90
7461;DHT22;6757;52.258;12.840;2023-05-21T04:00:57;12.80;99.90
7461;DHT22;6757;52.258;12.840;2023-05-21T04:03:26;12.80;99.90
7461;DHT22;6757;52.258;12.840;2023-05-21T04:05:53;12.90;99.90
7461;DHT22;6757;52.258;12.840;2023-05-21T04:08:20;12.90;99.90
7461;DHT22;6757;52.258;12.840;2023-05-21T04:10:47;12.90;99.90
7461;DHT22;6757;52.258;12.840;2023-05-21T04:13:16;13.00;99.90
7461;DHT22;6757;52.258;12.840;2023-05-21T04:15:43;13.10;99.90
7461;DHT22;6757;52.258;12.840;2023-05-21T04:18:11;13.10;99.90
7461;DHT22;6757;52.258;12.840;2023-05-21T04:20:38;13.20;99.90
7461;DHT22;6757;52.258;12.840;2023-05-21T04:23:04;13.20;99.90
7461;DHT22;6757;52.258;12.840;2023-05-21T04:25:31;13.30;99.90
7461;DHT22;6757;52.258;12.840;2023-05-21T04:27:58;13.40;99.90
7461;DHT22;6757;52.258;12.840;2023-05-21T04:30:27;13.40;99.90
7461;DHT22;6757;52.258;12.840;2023-05-21T04:32:54;13.50;99.90
7461;DHT22;6757;52.258;12.840;2023-05-21T04:35:22;13.60;99.90
7461;DHT22;6757;52.258;12.840;2023-05-21T04:37:49;13.60;99.90
7461;DHT22;6757;52.258;12.840;2023-05-21T04:40:16;13.70;99.90
7461;DHT22;6757;52.258;12.840;2023-05-21T04:42:49;13.80;99.90
7461;DHT22;6757;52.258;12.840;2023-05-21T04:45:17;13.90;99.90
7461;DHT22;6757;52.258;12.840;2023-05-21T04:47:45;14.00;99.90
7461;DHT22;6757;52.258;12.840;2023-05-21T04:50:12;14.00;99.90
7461;DHT22;6757;52.258;12.840;2023-05-21T04:52:39;14.40;99.90
7461;DHT22;6757;52.258;12.840;2023-05-21T04:55:10;14.10;99.90
7461;DHT22;6757;52.258;12.840;2023-05-21T04:57:36;14.20;99.90
7461;DHT22;6757;52.258;12.840;2023-05-21T05:00:05;14.30;99.90
7461;DHT22;6757;52.258;12.840;2023-05-21T05:02:33;14.30;99.90
7461;DHT22;6757;52.258;12.840;2023-05-21T05:05:01;14.40;99.90
7461;DHT22;6757;52.258;12.840;2023-05-21T05:07:29;14.50;99.90
7461;DHT22;6757;52.258;12.840;2023-05-21T05:09:56;14.50;99.90
7461;DHT22;6757;52.258;12.840;2023-05-21T05:12:22;14.50;99.90
7461;DHT22;6757;52.258;12.840;2023-05-21T05:14:49;14.60;99.90
7461;DHT22;6757;52.258;12.840;2023-05-21T05:17:16;14.60;99.90
7461;DHT22;6757;52.258;12.840;2023-05-21T05:19:44;14.70;99.90
7461;DHT22;6757;52.258;12.840;2023-05-21T05:22:12;14.70;99.90
7461;DHT22;6757;52.258;12.840;2023-05-21T05:24:39;14.80;99.90
7461;DHT22;6757;52.258;12.840;2023-05-21T05:27:06;14.90;99.90
7461;DHT22;6757;52.258;12.840;2023-05-21T05:29:33;14.90;99.90
7461;DHT22;6757;52.258;12.840;2023-05-21T05:31:59;15.00;99.90
7461;DHT22;6757;52.258;12.840;2023-05-21T05:34:26;15.00;99.90
7461;DHT22;6757;52.258;12.840;2023-05-21T05:36:53;15.10;99.90
7461;DHT22;6757;52.258;12.840;2023-05-21T05:39:22;15.10;99.90
7461;DHT22;6757;52.258;12.840;2023-05-21T05:41:49;15.20;99.90
7461;DHT22;6757;52.258;12.840;2023-05-21T05:44:16;15.10;99.90
7461;DHT22;6757;52.258;12.840;2023-05-21T05:46:43;15.30;99.90
7461;DHT22;6757;52.258;12.840;2023-05-21T05:49:10;15.30;99.90
7461;DHT22;6757;52.258;12.840;2023-05-21T05:51:38;15.40;99.90
7461;DHT22;6757;52.258;12.840;2023-05-21T05:54:05;15.40;99.90
7461;DHT22;6757;52.258;12.840;2023-05-21T05:56:33;15.50;99.90
7461;DHT22;6757;52.258;12.840;2023-05-21T05:59:00;15.50;99.90
7461;DHT22;6757;52.258;12.840;2023-05-21T06:01:27;15.60;99.90
7461;DHT22;6757;52.258;12.840;2023-05-21T06:03:54;15.70;99.90
7461;DHT22;6757;52.258;12.840;2023-05-21T06:06:21;15.80;99.90
7461;DHT22;6757;52.258;12.840;2023-05-21T06:08:48;15.90;99.90
7461;DHT22;6757;52.258;12.840;2023-05-21T06:11:15;16.00;99.90
7461;DHT22;6757;52.258;12.840;2023-05-21T06:13:44;16.10;99.90
7461;DHT22;6757;52.258;12.840;2023-05-21T06:16:11;16.20;99.90
7461;DHT22;6757;52.258;12.840;2023-05-21T06:18:38;16.30;99.90
7461;DHT22;6757;52.258;12.840;2023-05-21T06:21:05;16.40;99.90
7461;DHT22;6757;52.258;12.840;2023-05-21T06:23:32;16.50;99.90
7461;DHT22;6757;52.258;12.840;2023-05-21T06:26:01;16.70;99.90
7461;DHT22;6757;52.258;12.840;2023-05-21T06:28:28;16.80;99.90
7461;DHT22;6757;52.258;12.840;2023-05-21T06:30:56;17.00;99.90
7461;DHT22;6757;52.258;12.840;2023-05-21T06:33:23;17.10;99.90
7461;DHT22;6757;52.258;12.840;2023-05-21T06:35:51;17.30;99.90
7461;DHT22;6757;52.258;12.840;2023-05-21T06:38:18;17.40;99.90
7461;DHT22;6757;52.258;12.840;2023-05-21T06:40:45;17.60;99.90
7461;DHT22;6757;52.258;12.840;2023-05-21T06:43:12;17.70;99.90
7461;DHT22;6757;52.258;12.840;2023-05-21T06:45:39;17.80;99.90
7461;DHT22;6757;52.258;12.840;2023-05-21T06:48:08;17.90;99.90
7461;DHT22;6757;52.258;12.840;2023-05-21T06:50:36;18.00;99.90
7461;DHT22;6757;52.258;12.840;2023-05-21T06:53:03;18.10;99.90
7461;DHT22;6757;52.258;12.840;2023-05-21T06:55:30;18.10;99.90
7461;DHT22;6757;52.258;12.840;2023-05-21T06:57:57;18.20;99.90
7461;DHT22;6757;52.258;12.840;2023-05-21T07:00:24;18.30;99.90
7461;DHT22;6757;52.258;12.840;2023-05-21T07:02:51;18.30;99.90
7461;DHT22;6757;52.258;12.840;2023-05-21T07:05:20;18.40;99.90
7461;DHT22;6757;52.258;12.840;2023-05-21T07:07:46;18.60;99.90
7461;DHT22;6757;52.258;12.840;2023-05-21T07:10:13;18.60;99.90
7461;DHT22;6757;52.258;12.840;2023-05-21T07:12:40;18.60;99.90
7461;DHT22;6757;52.258;12.840;2023-05-21T07:15:08;18.70;99.90
7461;DHT22;6757;52.258;12.840;2023-05-21T07:17:36;18.80;99.90
7461;DHT22;6757;52.258;12.840;2023-05-21T07:20:05;18.90;99.90
7461;DHT22;6757;52.258;12.840;2023-05-21T07:22:36;19.00;99.90
7461;DHT22;6757;52.258;12.840;2023-05-21T07:25:05;19.10;99.90
7461;DHT22;6757;52.258;12.840;2023-05-21T07:27:32;19.20;99.90
7461;DHT22;6757;52.258;12.840;2023-05-21T07:29:59;19.30;99.90
7461;DHT22;6757;52.258;12.840;2023-05-21T07:32:26;19.30;99.90
7461;DHT22;6757;52.258;12.840;2023-05-21T07:34:53;19.40;99.90
7461;DHT22;6757;52.258;12.840;2023-05-21T07:37:20;19.50;99.90
7461;DHT22;6757;52.258;12.840;2023-05-21T07:39:49;19.60;99.90
7461;DHT22;6757;52.258;12.840;2023-05-21T07:42:16;19.70;99.90
7461;DHT22;6757;52.258;12.840;2023-05-21T07:44:43;19.70;99.90
7461;DHT22;6757;52.258;12.840;2023-05-21T07:47:09;19.80;99.90
7461;DHT22;6757;52.258;12.840;2023-05-21T07:49:36;19.90;99.90
7461;DHT22;6757;52.258;12.840;2023-05-21T07:52:04;19.90;99.90
7461;DHT22;6757;52.258;12.840;2023-05-21T07:54:31;20.00;99.90
7461;DHT22;6757;52.258;12.840;2023-05-21T07:57:00;20.10;99.90
7461;DHT22;6757;52.258;12.840;2023-05-21T07:59:27;20.20;99.90
7461;DHT22;6757;52.258;12.840;2023-05-21T08:01:54;20.30;99.90
7461;DHT22;6757;52.258;12.840;2023-05-21T08:04:21;20.40;99.90
7461;DHT22;6757;52.258;12.840;2023-05-21T08:06:48;20.50;99.90
7461;DHT22;6757;52.258;12.840;2023-05-21T08:09:15;20.60;99.90
7461;DHT22;6757;52.258;12.840;2023-05-21T08:11:42;20.70;99.90
7461;DHT22;6757;52.258;12.840;2023-05-21T08:14:10;20.80;99.90
7461;DHT22;6757;52.258;12.840;2023-05-21T08:16:37;20.90;99.90
7461;DHT22;6757;52.258;12.840;2023-05-21T08:19:04;20.90;99.90
7461;DHT22;6757;52.258;12.840;2023-05-21T08:21:31;21.00;99.90
7461;DHT22;6757;52.258;12.840;2023-05-21T08:23:58;21.10;99.90
7461;DHT22;6757;52.258;12.840;2023-05-21T08:26:27;21.10;99.90
7461;DHT22;6757;52.258;12.840;2023-05-21T08:28:54;21.20;99.90
7461;DHT22;6757;52.258;12.840;2023-05-21T08:31:22;21.30;99.90
7461;DHT22;6757;52.258;12.840;2023-05-21T08:33:49;21.40;99.90
7461;DHT22;6757;52.258;12.840;2023-05-21T08:36:17;21.50;99.90
7461;DHT22;6757;52.258;12.840;2023-05-21T08:38:44;21.50;99.90
7461;DHT22;6757;52.258;12.840;2023-05-21T08:41:11;21.70;99.90
7461;DHT22;6757;52.258;12.840;2023-05-21T08:43:39;21.70;99.90
7461;DHT22;6757;52.258;12.840;2023-05-21T08:46:08;21.80;99.90
7461;DHT22;6757;52.258;12.840;2023-05-21T08:48:37;21.90;99.90
7461;DHT22;6757;52.258;12.840;2023-05-21T08:51:04;22.00;99.90
7461;DHT22;6757;52.258;12.840;2023-05-21T08:53:32;22.10;99.90
7461;DHT22;6757;52.258;12.840;2023-05-21T08:56:00;22.30;99.90
7461;DHT22;6757;52.258;12.840;2023-05-21T08:58:28;22.30;99.90
7461;DHT22;6757;52.258;12.840;2023-05-21T09:00:55;22.50;99.90
7461;DHT22;6757;52.258;12.840;2023-05-21T09:03:23;22.60;99.90
7461;DHT22;6757;52.258;12.840;2023-05-21T09:05:52;22.70;99.90
7461;DHT22;6757;52.258;12.840;2023-05-21T09:08:28;22.90;99.90
7461;DHT22;6757;52.258;12.840;2023-05-21T09:10:57;23.00;99.90
7461;DHT22;6757;52.258;12.840;2023-05-21T09:13:24;23.10;99.90
7461;DHT22;6757;52.258;12.840;2023-05-21T09:15:52;23.20;99.90
7461;DHT22;6757;52.258;12.840;2023-05-21T09:18:19;23.20;99.90
7461;DHT22;6757;52.258;12.840;2023-05-21T09:20:46;23.30;99.90
7461;DHT22;6757;52.258;12.840;2023-05-21T09:23:16;23.40;99.90
7461;DHT22;6757;52.258;12.840;2023-05-21T09:25:44;23.50;99.90
7461;DHT22;6757;52.258;12.840;2023-05-21T09:28:12;23.70;99.90
7461;DHT22;6757;52.258;12.840;2023-05-21T09:30:44;23.80;99.90
7461;DHT22;6757;52.258;12.840;2023-05-21T09:33:11;23.90;99.90
7461;DHT22;6757;52.258;12.840;2023-05-21T09:35:44;24.10;99.90
7461;DHT22;6757;52.258;12.840;2023-05-21T09:38:11;24.10;99.90
7461;DHT22;6757;52.258;12.840;2023-05-21T09:40:43;24.20;99.90
7461;DHT22;6757;52.258;12.840;2023-05-21T09:43:13;24.30;99.90
7461;DHT22;6757;52.258;12.840;2023-05-21T09:45:49;24.30;99.90
7461;DHT22;6757;52.258;12.840;2023-05-21T09:48:22;24.40;99.90
7461;DHT22;6757;52.258;12.840;2023-05-21T09:51:06;24.40;99.90
7461;DHT22;6757;52.258;12.840;2023-05-21T09:53:36;24.40;99.90
7461;DHT22;6757;52.258;12.840;2023-05-21T09:56:03;24.50;99.90
7461;DHT22;6757;52.258;12.840;2023-05-21T09:58:31;24.50;99.90
7461;DHT22;6757;52.258;12.840;2023-05-21T10:00:59;24.50;99.90
7461;DHT22;6757;52.258;12.840;2023-05-21T10:03:27;24.60;99.90
7461;DHT22;6757;52.258;12.840;2023-05-21T10:05:57;24.60;99.90
7461;DHT22;6757;52.258;12.840;2023-05-21T10:08:26;24.60;99.90
7461;DHT22;6757;52.258;12.840;2023-05-21T10:10:58;24.70;99.90
7461;DHT22;6757;52.258;12.840;2023-05-21T10:13:25;24.80;99.90
7461;DHT22;6757;52.258;12.840;2023-05-21T10:16:00;24.90;99.90
7461;DHT22;6757;52.258;12.840;2023-05-21T10:18:29;25.00;99.90
7461;DHT22;6757;52.258;12.840;2023-05-21T10:20:57;25.10;99.90
7461;DHT22;6757;52.258;12.840;2023-05-21T10:23:24;25.30;99.90
7461;DHT22;6757;52.258;12.840;2023-05-21T10:25:53;25.40;99.90
7461;DHT22;6757;52.258;12.840;2023-05-21T10:28:23;25.60;99.90
7461;DHT22;6757;52.258;12.840;2023-05-21T10:30:50;25.80;99.90
7461;DHT22;6757;52.258;12.840;2023-05-21T10:33:19;25.90;99.90
7461;DHT22;6757;52.258;12.840;2023-05-21T10:35:50;26.10;99.90
7461;DHT22;6757;52.258;12.840;2023-05-21T10:38:18;26.20;99.90
7461;DHT22;6757;52.258;12.840;2023-05-21T10:40:46;26.30;99.90
7461;DHT22;6757;52.258;12.840;2023-05-21T10:46:57;26.50;99.90
7461;DHT22;6757;52.258;12.840;2023-05-21T10:49:43;26.60;99.90
7461;DHT22;6757;52.258;12.840;2023-05-21T10:52:24;26.80;99.90
7461;DHT22;6757;52.258;12.840;2023-05-21T10:55:08;26.90;99.90
7461;DHT22;6757;52.258;12.840;2023-05-21T10:58:13;27.20;99.90
7461;DHT22;6757;52.258;12.840;2023-05-21T11:00:52;27.20;99.90
7461;DHT22;6757;52.258;12.840;2023-05-21T11:03:20;27.50;99.90
7461;DHT22;6757;52.258;12.840;2023-05-21T11:05:52;27.50;99.90
7461;DHT22;6757;52.258;12.840;2023-05-21T11:08:21;27.60;99.90
7461;DHT22;6757;52.258;12.840;2023-05-21T11:10:52;27.60;99.80
7461;DHT22;6757;52.258;12.840;2023-05-21T11:13:20;27.70;99.10
7461;DHT22;6757;52.258;12.840;2023-05-21T11:16:14;27.80;98.30
7461;DHT22;6757;52.258;12.840;2023-05-21T11:19:00;27.80;97.40
7461;DHT22;6757;52.258;12.840;2023-05-21T11:21:29;27.90;96.80
7461;DHT22;6757;52.258;12.840;2023-05-21T11:24:00;28.00;96.40
7461;DHT22;6757;52.258;12.840;2023-05-21T11:26:59;28.00;95.20
7461;DHT22;6757;52.258;12.840;2023-05-21T11:29:41;28.00;94.20
7461;DHT22;6757;52.258;12.840;2023-05-21T11:32:12;28.00;93.80
7461;DHT22;6757;52.258;12.840;2023-05-21T11:34:42;28.00;93.60
7461;DHT22;6757;52.258;12.840;2023-05-21T11:37:30;28.00;93.20
7461;DHT22;6757;52.258;12.840;2023-05-21T11:40:22;28.00;92.40
7461;DHT22;6757;52.258;12.840;2023-05-21T11:42:52;28.00;91.70
7461;DHT22;6757;52.258;12.840;2023-05-21T11:45:21;28.10;91.20
7461;DHT22;6757;52.258;12.840;2023-05-21T11:47:50;28.20;90.20
7461;DHT22;6757;52.258;12.840;2023-05-21T11:50:18;28.20;88.30
7461;DHT22;6757;52.258;12.840;2023-05-21T11:52:45;28.50;86.70
7461;DHT22;6757;52.258;12.840;2023-05-21T11:55:12;28.70;85.50
7461;DHT22;6757;52.258;12.840;2023-05-21T11:57:42;28.90;83.60
7461;DHT22;6757;52.258;12.840;2023-05-21T12:00:13;29.20;81.80
7461;DHT22;6757;52.258;12.840;2023-05-21T12:02:46;29.50;79.80
7461;DHT22;6757;52.258;12.840;2023-05-21T12:05:15;29.60;78.50
7461;DHT22;6757;52.258;12.840;2023-05-21T12:07:45;29.90;77.80
7461;DHT22;6757;52.258;12.840;2023-05-21T12:10:14;30.00;76.80
7461;DHT22;6757;52.258;12.840;2023-05-21T12:12:42;30.10;76.00
7461;DHT22;6757;52.258;12.840;2023-05-21T12:15:10;30.50;75.60
7461;DHT22;6757;52.258;12.840;2023-05-21T12:17:39;30.40;74.70
7461;DHT22;6757;52.258;12.840;2023-05-21T12:20:07;30.50;74.00
7461;DHT22;6757;52.258;12.840;2023-05-21T12:22:39;30.80;73.40
7461;DHT22;6757;52.258;12.840;2023-05-21T12:25:08;30.70;72.60
7461;DHT22;6757;52.258;12.840;2023-05-21T12:27:36;30.90;72.40
7461;DHT22;6757;52.258;12.840;2023-05-21T12:30:05;30.90;72.20
7461;DHT22;6757;52.258;12.840;2023-05-21T12:32:33;30.80;72.10
7461;DHT22;6757;52.258;12.840;2023-05-21T12:35:02;30.80;71.90
7461;DHT22;6757;52.258;12.840;2023-05-21T12:37:30;30.80;71.50
7461;DHT22;6757;52.258;12.840;2023-05-21T12:39:59;31.10;71.30
7461;DHT22;6757;52.258;12.840;2023-05-21T12:42:30;31.20;70.90
7461;DHT22;6757;52.258;12.840;2023-05-21T12:44:59;31.30;70.30
7461;DHT22;6757;52.258;12.840;2023-05-21T12:47:27;31.50;70.20
7461;DHT22;6757;52.258;12.840;2023-05-21T12:49:56;31.70;69.80
7461;DHT22;6757;52.258;12.840;2023-05-21T12:52:23;31.80;69.20
7461;DHT22;6757;52.258;12.840;2023-05-21T12:54:52;32.10;68.90
7461;DHT22;6757;52.258;12.840;2023-05-21T12:57:23;32.50;68.90
7461;DHT22;6757;52.258;12.840;2023-05-21T12:59:53;32.90;67.30
7461;DHT22;6757;52.258;12.840;2023-05-21T13:02:23;33.20;66.20
7461;DHT22;6757;52.258;12.840;2023-05-21T13:04:54;33.50;64.80
7461;DHT22;6757;52.258;12.840;2023-05-21T13:07:22;33.60;63.90
7461;DHT22;6757;52.258;12.840;2023-05-21T13:09:50;33.50;63.30
7461;DHT22;6757;52.258;12.840;2023-05-21T13:12:18;33.40;62.80
7461;DHT22;6757;52.258;12.840;2023-05-21T13:14:48;33.10;62.50
7461;DHT22;6757;52.258;12.840;2023-05-21T13:17:16;32.70;62.50
7461;DHT22;6757;52.258;12.840;2023-05-21T13:20:03;32.40;62.70
7461;DHT22;6757;52.258;12.840;2023-05-21T13:22:32;32.10;63.10
7461;DHT22;6757;52.258;12.840;2023-05-21T13:25:00;31.80;63.10
7461;DHT22;6757;52.258;12.840;2023-05-21T13:27:27;31.60;63.90
7461;DHT22;6757;52.258;12.840;2023-05-21T13:29:56;31.50;63.50
7461;DHT22;6757;52.258;12.840;2023-05-21T13:32:23;31.60;63.80
7461;DHT22;6757;52.258;12.840;2023-05-21T13:34:50;31.80;63.50
7461;DHT22;6757;52.258;12.840;2023-05-21T13:37:17;32.20;63.20
7461;DHT22;6757;52.258;12.840;2023-05-21T13:39:45;32.50;62.70
7461;DHT22;6757;52.258;12.840;2023-05-21T13:42:12;32.90;62.20
7461;DHT22;6757;52.258;12.840;2023-05-21T13:44:39;33.40;61.90
7461;DHT22;6757;52.258;12.840;2023-05-21T13:47:08;33.70;61.40
7461;DHT22;6757;52.258;12.840;2023-05-21T13:49:36;34.00;60.80
7461;DHT22;6757;52.258;12.840;2023-05-21T13:52:05;34.00;60.00
7461;DHT22;6757;52.258;12.840;2023-05-21T13:54:32;34.10;59.50
7461;DHT22;6757;52.258;12.840;2023-05-21T13:57:00;34.10;59.10
7461;DHT22;6757;52.258;12.840;2023-05-21T13:59:28;34.10;58.80
7461;DHT22;6757;52.258;12.840;2023-05-21T14:01:55;34.00;58.60
7461;DHT22;6757;52.258;12.840;2023-05-21T14:04:23;34.00;58.40
7461;DHT22;6757;52.258;12.840;2023-05-21T14:06:50;34.10;58.30
7461;DHT22;6757;52.258;12.840;2023-05-21T14:09:18;34.30;58.00
7461;DHT22;6757;52.258;12.840;2023-05-21T14:11:45;34.30;56.80
7461;DHT22;6757;52.258;12.840;2023-05-21T14:14:12;34.30;56.40
7461;DHT22;6757;52.258;12.840;2023-05-21T14:16:44;34.20;56.10
7461;DHT22;6757;52.258;12.840;2023-05-21T14:19:12;34.00;56.20
7461;DHT22;6757;52.258;12.840;2023-05-21T14:21:40;33.70;56.30
7461;DHT22;6757;52.258;12.840;2023-05-21T14:24:07;33.50;56.50
7461;DHT22;6757;52.258;12.840;2023-05-21T14:26:38;33.40;56.70
7461;DHT22;6757;52.258;12.840;2023-05-21T14:29:07;33.40;56.80
7461;DHT22;6757;52.258;12.840;2023-05-21T14:31:34;33.40;56.60
7461;DHT22;6757;52.258;12.840;2023-05-21T14:34:01;33.40;56.50
7461;DHT22;6757;52.258;12.840;2023-05-21T14:36:29;33.40;56.40
7461;DHT22;6757;52.258;12.840;2023-05-21T14:38:58;33.30;56.20
7461;DHT22;6757;52.258;12.840;2023-05-21T14:41:25;33.20;55.70
7461;DHT22;6757;52.258;12.840;2023-05-21T14:43:53;32.70;55.30
7461;DHT22;6757;52.258;12.840;2023-05-21T14:46:20;32.80;55.60
7461;DHT22;6757;52.258;12.840;2023-05-21T14:48:47;32.70;55.60
7461;DHT22;6757;52.258;12.840;2023-05-21T14:51:14;32.50;55.80
7461;DHT22;6757;52.258;12.840;2023-05-21T14:53:41;32.30;56.10
7461;DHT22;6757;52.258;12.840;2023-05-21T14:56:09;32.00;56.40
7461;DHT22;6757;52.258;12.840;2023-05-21T14:58:36;31.70;56.70
7461;DHT22;6757;52.258;12.840;2023-05-21T15:01:03;31.40;56.80
7461;DHT22;6757;52.258;12.840;2023-05-21T15:03:30;31.10;57.20
7461;DHT22;6757;52.258;12.840;2023-05-21T15:05:57;30.70;57.40
7461;DHT22;6757;52.258;12.840;2023-05-21T15:08:24;30.40;57.80
7461;DHT22;6757;52.258;12.840;2023-05-21T15:10:51;30.40;58.40
7461;DHT22;6757;52.258;12.840;2023-05-21T15:13:19;30.50;59.00
7461;DHT22;6757;52.258;12.840;2023-05-21T15:15:46;30.20;59.20
7461;DHT22;6757;52.258;12.840;2023-05-21T15:18:14;29.70;59.10
7461;DHT22;6757;52.258;12.840;2023-05-21T15:20:41;29.80;59.40
7461;DHT22;6757;52.258;12.840;2023-05-21T15:23:08;30.00;59.30
7461;DHT22;6757;52.258;12.840;2023-05-21T15:25:35;30.30;59.10
7461;DHT22;6757;52.258;12.840;2023-05-21T15:28:02;30.60;58.60
7461;DHT22;6757;52.258;12.840;2023-05-21T15:30:30;30.90;58.10
7461;DHT22;6757;52.258;12.840;2023-05-21T15:32:57;31.20;57.60
7461;DHT22;6757;52.258;12.840;2023-05-21T15:35:24;31.50;57.00
7461;DHT22;6757;52.258;12.840;2023-05-21T15:37:51;31.60;56.40
7461;DHT22;6757;52.258;12.840;2023-05-21T15:40:18;31.80;55.90
7461;DHT22;6757;52.258;12.840;2023-05-21T15:42:45;31.90;55.50
7461;DHT22;6757;52.258;12.840;2023-05-21T15:45:12;31.80;55.40
7461;DHT22;6757;52.258;12.840;2023-05-21T15:47:40;31.90;55.50
7461;DHT22;6757;52.258;12.840;2023-05-21T15:50:08;31.80;55.40
7461;DHT22;6757;52.258;12.840;2023-05-21T15:52:36;31.80;55.40
7461;DHT22;6757;52.258;12.840;2023-05-21T15:55:04;31.70;55.30
7461;DHT22;6757;52.258;12.840;2023-05-21T15:57:31;31.60;55.50